createdAt,value
2023-02-19T00:01:31.894Z,96.20
2023-02-19T00:04:04.555Z,96.20
2023-02-19T00:06:33.408Z,96.20
2023-02-19T00:09:00.478Z,96.20
2023-02-19T00:11:30.256Z,96.30
2023-02-19T00:13:58.615Z,96.30
2023-02-19T00:16:26.962Z,96.30
2023-02-19T00:18:55.250Z,96.20
2023-02-19T00:21:22.677Z,96.20
2023-02-19T00:23:54.648Z,96.30
2023-02-19T00:26:21.520Z,96.40
2023-02-19T00:28:49.764Z,96.30
2023-02-19T00:31:46.420Z,96.30
2023-02-19T00:34:14.175Z,96.70
2023-02-19T00:36:42.223Z,96.30
2023-02-19T00:39:11.685Z,96.30
2023-02-19T00:41:38.356Z,96.40
2023-02-19T00:44:07.336Z,96.40
2023-02-19T00:46:52.146Z,96.40
2023-02-19T00:49:21.762Z,96.40
2023-02-19T00:51:49.600Z,96.40
2023-02-19T00:54:17.445Z,96.40
2023-02-19T00:56:44.308Z,96.40
2023-02-19T00:59:11.484Z,96.40
2023-02-19T01:01:38.520Z,96.50
2023-02-19T01:04:06.735Z,96.50
2023-02-19T01:06:34.664Z,96.50
2023-02-19T01:09:01.589Z,96.40
2023-02-19T01:11:28.343Z,96.40
2023-02-19T01:13:59.163Z,96.40
2023-02-19T01:16:27.483Z,96.50
2023-02-19T01:18:56.251Z,96.40
2023-02-19T01:21:26.091Z,96.40
2023-02-19T01:23:53.672Z,96.40
2023-02-19T01:26:26.542Z,96.40
2023-02-19T01:28:53.305Z,96.70
2023-02-19T01:31:23.245Z,96.40
2023-02-19T01:33:56.483Z,96.30
2023-02-19T01:36:24.069Z,96.30
2023-02-19T01:38:50.935Z,96.30
2023-02-19T01:41:20.576Z,96.70
2023-02-19T01:44:02.105Z,96.30
2023-02-19T01:46:33.469Z,96.30
2023-02-19T01:49:14.845Z,96.30
2023-02-19T01:51:48.940Z,96.20
2023-02-19T01:54:18.244Z,96.20
2023-02-19T01:56:48.246Z,96.20
2023-02-19T01:59:16.721Z,96.20
2023-02-19T02:01:43.472Z,96.10
2023-02-19T02:04:11.988Z,96.20
2023-02-19T02:06:45.468Z,96.10
2023-02-19T02:09:31.404Z,96.10
2023-02-19T02:11:58.152Z,96.00
2023-02-19T02:14:30.206Z,96.00
2023-02-19T02:17:14.858Z,96.00
2023-02-19T02:20:16.785Z,96.00
2023-02-19T02:23:14.486Z,96.00
2023-02-19T02:25:53.841Z,96.00
2023-02-19T02:28:41.901Z,96.00
2023-02-19T02:31:28.758Z,96.00
2023-02-19T02:34:04.458Z,96.00
2023-02-19T02:36:40.231Z,96.00
2023-02-19T02:39:10.893Z,96.00
2023-02-19T02:41:45.829Z,95.90
2023-02-19T02:44:12.870Z,95.90
2023-02-19T02:46:44.835Z,95.90
2023-02-19T02:49:22.125Z,95.80
2023-02-19T02:51:52.867Z,95.80
2023-02-19T02:54:41.430Z,95.80
2023-02-19T02:57:09.599Z,95.80
2023-02-19T02:59:39.679Z,95.90
2023-02-19T03:02:20.974Z,95.90
2023-02-19T03:05:16.694Z,95.80
2023-02-19T03:08:07.550Z,95.90
2023-02-19T03:10:45.902Z,95.80
2023-02-19T03:13:55.852Z,95.80
2023-02-19T03:16:48.328Z,95.80
2023-02-19T03:19:21.029Z,95.80
2023-02-19T03:21:58.267Z,95.70
2023-02-19T03:24:52.162Z,95.80
2023-02-19T03:27:21.889Z,95.70
2023-02-19T03:29:51.637Z,95.70
2023-02-19T03:32:26.880Z,95.70
2023-02-19T03:35:02.354Z,95.70
2023-02-19T03:37:51.146Z,95.70
2023-02-19T03:40:18.027Z,95.70
2023-02-19T03:43:23.173Z,95.60
2023-02-19T03:45:52.643Z,95.60
2023-02-19T03:48:26.263Z,95.60
2023-02-19T03:51:10.254Z,95.50
2023-02-19T03:54:09.848Z,95.50
2023-02-19T03:56:54.661Z,95.50
2023-02-19T03:59:30.659Z,95.50
2023-02-19T04:02:08.119Z,95.50
2023-02-19T04:04:39.607Z,95.40
2023-02-19T04:07:06.593Z,95.40
2023-02-19T04:09:41.551Z,95.50
2023-02-19T04:12:09.447Z,95.50
2023-02-19T04:14:40.955Z,95.50
2023-02-19T04:17:16.910Z,95.50
2023-02-19T04:19:44.648Z,95.40
2023-02-19T04:22:12.953Z,95.40
2023-02-19T04:24:46.616Z,95.40
2023-02-19T04:27:13.770Z,95.40
2023-02-19T04:29:40.769Z,95.40
2023-02-19T04:32:09.236Z,95.80
2023-02-19T04:34:35.924Z,95.80
2023-02-19T04:37:02.812Z,95.40
2023-02-19T04:39:29.560Z,95.30
2023-02-19T04:41:56.248Z,95.30
2023-02-19T04:44:23.026Z,95.40
2023-02-19T04:46:49.771Z,95.40
2023-02-19T04:49:16.457Z,95.30
2023-02-19T04:51:43.195Z,95.30
2023-02-19T04:54:10.007Z,95.30
2023-02-19T04:56:36.682Z,95.60
2023-02-19T04:59:03.701Z,95.20
2023-02-19T05:01:30.556Z,95.20
2023-02-19T05:03:57.273Z,95.10
2023-02-19T05:06:24.079Z,95.10
2023-02-19T05:08:50.824Z,95.10
2023-02-19T05:11:17.581Z,95.20
2023-02-19T05:13:44.528Z,95.10
2023-02-19T05:16:16.416Z,95.10
2023-02-19T05:18:45.075Z,95.00
2023-02-19T05:21:12.698Z,95.00
2023-02-19T05:23:40.205Z,95.30
2023-02-19T05:26:19.809Z,94.90
2023-02-19T05:28:48.609Z,94.90
2023-02-19T05:31:16.301Z,94.70
2023-02-19T05:33:44.205Z,94.80
2023-02-19T05:36:13.174Z,94.70
2023-02-19T05:38:41.215Z,94.60
2023-02-19T05:41:08.969Z,94.60
2023-02-19T05:43:35.992Z,94.50
2023-02-19T05:46:02.665Z,94.50
2023-02-19T05:48:29.350Z,94.40
2023-02-19T05:51:05.228Z,94.40
2023-02-19T05:53:32.366Z,94.30
2023-02-19T05:55:59.207Z,94.30
2023-02-19T05:58:26.969Z,94.20
2023-02-19T06:00:54.415Z,94.10
2023-02-19T06:03:21.879Z,94.10
2023-02-19T06:05:48.814Z,94.10
2023-02-19T06:08:16.072Z,94.00
2023-02-19T06:10:44.296Z,94.00
2023-02-19T06:13:11.144Z,93.90
2023-02-19T06:15:38.274Z,94.00
2023-02-19T06:18:05.188Z,93.90
2023-02-19T06:20:32.973Z,93.90
2023-02-19T06:22:59.822Z,93.90
2023-02-19T06:25:26.532Z,93.80
2023-02-19T06:27:53.267Z,93.70
2023-02-19T06:30:20.224Z,93.80
2023-02-19T06:32:46.894Z,93.70
2023-02-19T06:35:13.649Z,93.80
2023-02-19T06:37:40.314Z,93.70
2023-02-19T06:40:07.617Z,93.70
2023-02-19T06:42:34.313Z,93.70
2023-02-19T06:45:00.973Z,93.70
2023-02-19T06:47:32.418Z,93.70
2023-02-19T06:50:00.622Z,93.70
2023-02-19T06:52:28.148Z,93.70
2023-02-19T06:54:54.847Z,93.70
2023-02-19T06:57:21.590Z,93.80
2023-02-19T06:59:48.277Z,93.80
2023-02-19T07:02:14.961Z,93.80
2023-02-19T07:04:41.705Z,94.20
2023-02-19T07:07:12.051Z,93.90
2023-02-19T07:09:38.647Z,93.90
2023-02-19T07:12:05.890Z,93.90
2023-02-19T07:14:32.724Z,94.00
2023-02-19T07:16:59.411Z,94.10
2023-02-19T07:19:26.086Z,94.10
2023-02-19T07:21:52.765Z,94.10
2023-02-19T07:24:21.537Z,94.20
2023-02-19T07:26:48.321Z,94.20
2023-02-19T07:29:15.078Z,94.20
2023-02-19T07:31:42.726Z,94.20
2023-02-19T07:34:09.433Z,94.30
2023-02-19T07:36:36.252Z,94.30
2023-02-19T07:39:03.748Z,94.30
2023-02-19T07:41:30.552Z,94.30
2023-02-19T07:43:57.655Z,94.40
2023-02-19T07:46:24.910Z,94.40
2023-02-19T07:48:51.739Z,94.40
2023-02-19T07:51:20.281Z,94.40
2023-02-19T07:53:50.610Z,94.40
2023-02-19T07:56:17.841Z,94.40
2023-02-19T07:58:46.217Z,94.50
2023-02-19T08:01:18.664Z,94.50
2023-02-19T08:03:45.809Z,94.60
2023-02-19T08:06:12.684Z,94.60
2023-02-19T08:08:40.020Z,94.60
2023-02-19T08:11:25.796Z,94.60
2023-02-19T08:13:53.627Z,94.60
2023-02-19T08:16:33.079Z,94.70
2023-02-19T08:19:04.220Z,94.70
2023-02-19T08:21:32.604Z,94.70
2023-02-19T08:24:00.849Z,94.70
2023-02-19T08:26:27.554Z,94.80
2023-02-19T08:28:54.239Z,94.70
2023-02-19T08:31:21.131Z,94.80
2023-02-19T08:33:47.828Z,94.80
2023-02-19T08:36:14.529Z,94.80
2023-02-19T08:38:41.489Z,94.90
2023-02-19T08:41:10.973Z,94.90
2023-02-19T08:43:38.913Z,94.90
2023-02-19T08:46:07.201Z,95.00
2023-02-19T08:48:34.472Z,94.90
2023-02-19T08:51:03.925Z,95.00
2023-02-19T08:53:32.293Z,95.00
2023-02-19T08:55:59.372Z,95.00
2023-02-19T08:58:26.331Z,95.10
2023-02-19T09:00:53.605Z,95.10
2023-02-19T09:03:20.422Z,95.10
2023-02-19T09:05:47.144Z,95.00
2023-02-19T09:08:13.969Z,95.00
2023-02-19T09:10:40.817Z,94.90
2023-02-19T09:13:07.592Z,95.00
2023-02-19T09:15:34.375Z,95.10
2023-02-19T09:18:01.188Z,95.00
2023-02-19T09:20:27.883Z,95.00
2023-02-19T09:22:59.074Z,95.00
2023-02-19T09:25:26.103Z,95.00
2023-02-19T09:27:56.586Z,95.00
2023-02-19T09:30:23.437Z,94.90
2023-02-19T09:32:50.282Z,94.90
2023-02-19T09:35:16.979Z,94.80
2023-02-19T09:37:43.739Z,94.80
2023-02-19T09:40:11.160Z,94.70
2023-02-19T09:42:41.056Z,94.60
2023-02-19T09:45:08.443Z,94.60
2023-02-19T09:47:35.515Z,94.70
2023-02-19T09:50:10.246Z,94.70
2023-02-19T09:52:49.113Z,94.70
2023-02-19T09:55:36.192Z,94.70
2023-02-19T09:58:16.042Z,94.70
2023-02-19T10:00:43.068Z,94.60
2023-02-19T10:03:25.580Z,94.50
2023-02-19T10:05:53.641Z,94.60
2023-02-19T10:08:21.695Z,94.40
2023-02-19T10:10:48.716Z,94.40
2023-02-19T10:13:20.702Z,94.70
2023-02-19T10:15:54.305Z,94.20
2023-02-19T10:18:24.867Z,94.00
2023-02-19T10:20:52.815Z,94.00
2023-02-19T10:23:20.167Z,93.80
2023-02-19T10:25:59.538Z,93.90
2023-02-19T10:28:29.869Z,93.80
2023-02-19T10:30:58.637Z,93.70
2023-02-19T10:33:26.395Z,93.50
2023-02-19T10:35:55.880Z,93.50
2023-02-19T10:38:29.573Z,93.60
2023-02-19T10:41:17.670Z,93.60
2023-02-19T10:44:15.284Z,93.50
2023-02-19T10:46:49.316Z,93.50
2023-02-19T10:49:43.349Z,93.30
2023-02-19T10:52:26.886Z,93.20
2023-02-19T10:55:14.845Z,93.00
2023-02-19T10:57:41.685Z,93.10
2023-02-19T11:00:27.507Z,93.10
2023-02-19T11:03:20.038Z,93.10
2023-02-19T11:06:08.887Z,93.30
2023-02-19T11:08:49.038Z,93.20
2023-02-19T11:11:31.114Z,93.20
2023-02-19T11:13:59.773Z,93.40
2023-02-19T11:16:43.002Z,93.50
2023-02-19T11:19:26.974Z,93.40
2023-02-19T11:21:54.522Z,93.50
2023-02-19T11:24:37.167Z,93.30
2023-02-19T11:27:07.752Z,93.30
2023-02-19T11:29:35.418Z,93.10
2023-02-19T11:32:20.815Z,93.20
2023-02-19T11:34:48.417Z,93.20
2023-02-19T11:37:21.010Z,93.30
2023-02-19T11:39:49.709Z,93.40
2023-02-19T11:42:19.375Z,93.50
2023-02-19T11:45:14.592Z,93.50
2023-02-19T11:48:09.985Z,93.50
2023-02-19T11:51:13.907Z,93.50
2023-02-19T11:54:02.742Z,93.50
2023-02-19T11:56:56.851Z,93.70
2023-02-19T11:59:43.695Z,93.70
2023-02-19T12:02:25.545Z,93.60
2023-02-19T12:05:15.437Z,93.70
2023-02-19T12:08:33.356Z,93.70
2023-02-19T12:11:39.338Z,93.70
2023-02-19T12:14:20.407Z,93.80
2023-02-19T12:17:07.337Z,93.70
2023-02-19T12:20:01.700Z,93.60
2023-02-19T12:22:33.896Z,93.60
2023-02-19T12:25:28.140Z,93.70
2023-02-19T12:28:06.965Z,93.60
2023-02-19T12:30:46.059Z,93.60
2023-02-19T12:33:47.344Z,93.60
2023-02-19T12:36:33.855Z,93.60
2023-02-19T12:39:18.597Z,93.60
2023-02-19T12:42:11.732Z,93.50
2023-02-19T12:44:53.025Z,93.60
2023-02-19T12:47:23.240Z,93.70
2023-02-19T12:50:02.360Z,93.80
2023-02-19T12:52:36.654Z,93.80
2023-02-19T12:55:42.663Z,93.80
2023-02-19T12:58:35.460Z,93.80
2023-02-19T13:01:03.879Z,93.70
2023-02-19T13:04:15.169Z,93.70
2023-02-19T13:06:48.100Z,93.50
2023-02-19T13:09:34.053Z,93.50
2023-02-19T13:12:07.332Z,93.60
2023-02-19T13:14:36.587Z,93.50
2023-02-19T13:17:32.970Z,93.40
2023-02-19T13:20:13.451Z,93.30
2023-02-19T13:23:01.225Z,93.30
2023-02-19T13:25:46.305Z,93.10
2023-02-19T13:28:43.594Z,93.10
2023-02-19T13:31:31.547Z,93.10
2023-02-19T13:34:23.913Z,93.10
2023-02-19T13:36:50.922Z,93.10
2023-02-19T13:39:20.906Z,93.10
2023-02-19T13:41:53.493Z,93.10
2023-02-19T13:44:26.426Z,93.20
2023-02-19T13:46:53.356Z,93.10
2023-02-19T13:49:33.763Z,93.20
2023-02-19T13:52:01.942Z,93.10
2023-02-19T13:54:35.910Z,93.10
2023-02-19T13:57:23.629Z,93.10
2023-02-19T13:59:53.656Z,93.20
2023-02-19T14:02:23.486Z,93.30
2023-02-19T14:04:56.879Z,93.30
2023-02-19T14:07:48.909Z,93.30
2023-02-19T14:10:54.690Z,93.40
2023-02-19T14:13:49.478Z,93.40
2023-02-19T14:16:49.089Z,93.50
2023-02-19T14:19:36.755Z,93.50
2023-02-19T14:22:42.086Z,93.40
2023-02-19T14:25:23.767Z,93.50
2023-02-19T14:27:53.195Z,93.50
2023-02-19T14:30:22.536Z,93.50
2023-02-19T14:32:54.511Z,93.60
2023-02-19T14:35:36.655Z,93.70
2023-02-19T14:38:04.196Z,93.70
2023-02-19T14:40:41.477Z,93.70
2023-02-19T14:43:14.667Z,93.70
2023-02-19T14:45:52.778Z,93.80
2023-02-19T14:48:32.994Z,94.00
2023-02-19T14:51:06.943Z,93.50
2023-02-19T14:53:39.432Z,93.50
2023-02-19T14:56:16.980Z,93.60
2023-02-19T14:58:43.779Z,93.40
2023-02-19T15:01:28.942Z,93.40
2023-02-19T15:03:56.575Z,93.40
2023-02-19T15:06:24.503Z,93.40
2023-02-19T15:09:00.522Z,93.40
2023-02-19T15:11:29.695Z,93.30
2023-02-19T15:14:02.739Z,93.20
2023-02-19T15:16:31.328Z,93.30
2023-02-19T15:19:00.035Z,93.40
2023-02-19T15:21:33.149Z,93.50
2023-02-19T15:24:03.025Z,93.50
2023-02-19T15:26:35.788Z,93.50
2023-02-19T15:29:11.698Z,93.60
2023-02-19T15:31:48.988Z,93.50
2023-02-19T15:34:21.353Z,93.50
2023-02-19T15:36:51.335Z,93.50
2023-02-19T15:39:24.393Z,93.40
2023-02-19T15:42:03.609Z,93.40
2023-02-19T15:44:42.065Z,93.40
2023-02-19T15:47:29.668Z,93.40
2023-02-19T15:49:58.691Z,93.40
2023-02-19T15:52:36.118Z,93.40
2023-02-19T15:55:28.166Z,93.50
2023-02-19T15:57:58.728Z,93.40
2023-02-19T16:00:48.581Z,93.50
2023-02-19T16:03:27.312Z,93.10
2023-02-19T16:06:14.772Z,93.10
2023-02-19T16:09:05.637Z,93.10
2023-02-19T16:11:38.186Z,93.00
2023-02-19T16:14:29.123Z,93.00
2023-02-19T16:17:07.647Z,93.00
2023-02-19T16:19:42.930Z,93.00
2023-02-19T16:22:17.192Z,93.00
2023-02-19T16:24:47.078Z,93.00
2023-02-19T16:27:26.661Z,93.00
2023-02-19T16:29:53.687Z,93.00
2023-02-19T16:32:20.495Z,93.00
2023-02-19T16:34:50.440Z,93.00
2023-02-19T16:37:35.058Z,93.00
2023-02-19T16:40:08.110Z,93.00
2023-02-19T16:42:49.861Z,93.00
2023-02-19T16:45:17.360Z,93.00
2023-02-19T16:47:51.359Z,92.90
2023-02-19T16:50:23.832Z,92.90
2023-02-19T16:52:56.185Z,93.20
2023-02-19T16:55:23.252Z,92.90
2023-02-19T16:57:50.225Z,93.30
2023-02-19T17:00:19.285Z,93.00
2023-02-19T17:02:47.996Z,92.90
2023-02-19T17:05:15.690Z,92.90
2023-02-19T17:07:42.549Z,92.70
2023-02-19T17:10:13.669Z,92.50
2023-02-19T17:12:40.362Z,92.50
2023-02-19T17:15:07.469Z,92.40
2023-02-19T17:17:34.682Z,92.30
2023-02-19T17:20:01.436Z,92.10
2023-02-19T17:22:28.130Z,92.00
2023-02-19T17:24:55.169Z,91.70
2023-02-19T17:27:21.876Z,91.70
2023-02-19T17:29:48.538Z,91.50
2023-02-19T17:32:15.359Z,91.50
2023-02-19T17:34:42.174Z,91.40
2023-02-19T17:37:08.855Z,91.50
2023-02-19T17:39:35.552Z,91.40
2023-02-19T17:42:02.810Z,91.70
2023-02-19T17:44:29.541Z,91.40
2023-02-19T17:46:56.283Z,91.30
2023-02-19T17:49:23.104Z,91.20
2023-02-19T17:51:50.029Z,91.10
2023-02-19T17:54:16.719Z,91.10
2023-02-19T17:56:46.039Z,91.00
2023-02-19T17:59:13.350Z,91.00
2023-02-19T18:01:40.216Z,90.90
2023-02-19T18:04:07.108Z,91.30
2023-02-19T18:06:34.886Z,90.80
2023-02-19T18:09:01.546Z,90.70
2023-02-19T18:11:28.240Z,90.70
2023-02-19T18:13:55.565Z,90.80
2023-02-19T18:16:22.437Z,90.80
2023-02-19T18:18:49.251Z,90.70
2023-02-19T18:21:16.072Z,90.70
2023-02-19T18:23:42.839Z,90.70
2023-02-19T18:26:11.125Z,90.70
2023-02-19T18:28:38.234Z,90.70
2023-02-19T18:31:05.430Z,90.70
2023-02-19T18:33:34.092Z,90.70
2023-02-19T18:36:00.848Z,90.70
2023-02-19T18:38:27.941Z,90.70
2023-02-19T18:40:54.705Z,90.70
2023-02-19T18:43:21.389Z,90.70
2023-02-19T18:45:48.171Z,90.70
2023-02-19T18:48:14.947Z,90.80
2023-02-19T18:50:41.620Z,90.90
2023-02-19T18:53:08.368Z,90.90
2023-02-19T18:55:35.160Z,90.90
2023-02-19T18:58:01.965Z,91.00
2023-02-19T19:00:28.762Z,90.90
2023-02-19T19:02:59.595Z,90.90
2023-02-19T19:05:26.973Z,91.00
2023-02-19T19:07:55.333Z,91.00
2023-02-19T19:10:22.982Z,91.00
2023-02-19T19:12:50.624Z,91.10
2023-02-19T19:15:18.731Z,91.20
2023-02-19T19:17:46.172Z,91.20
2023-02-19T19:20:13.799Z,91.20
2023-02-19T19:22:40.644Z,91.20
2023-02-19T19:25:08.684Z,91.30
2023-02-19T19:27:35.645Z,91.30
2023-02-19T19:30:04.286Z,91.40
2023-02-19T19:32:31.244Z,91.40
2023-02-19T19:34:58.225Z,91.80
2023-02-19T19:37:26.832Z,91.40
2023-02-19T19:39:55.911Z,91.40
2023-02-19T19:42:23.086Z,91.50
2023-02-19T19:44:49.887Z,91.50
2023-02-19T19:47:16.916Z,91.50
2023-02-19T19:49:47.062Z,91.50
2023-02-19T19:52:13.951Z,91.50
2023-02-19T19:54:43.633Z,91.50
2023-02-19T19:57:11.182Z,91.50
2023-02-19T19:59:39.317Z,91.50
2023-02-19T20:02:07.566Z,91.60
2023-02-19T20:04:34.512Z,91.60
2023-02-19T20:07:01.788Z,91.50
2023-02-19T20:09:29.117Z,91.60
2023-02-19T20:11:56.505Z,91.70
2023-02-19T20:14:24.118Z,91.60
2023-02-19T20:16:50.825Z,91.60
2023-02-19T20:19:19.547Z,91.60
2023-02-19T20:21:51.704Z,91.70
2023-02-19T20:24:24.027Z,91.70
2023-02-19T20:26:58.305Z,91.70
2023-02-19T20:29:29.888Z,91.70
2023-02-19T20:31:59.847Z,91.70
2023-02-19T20:34:27.205Z,91.70
2023-02-19T20:36:54.338Z,91.70
2023-02-19T20:39:21.748Z,91.70
2023-02-19T20:41:52.246Z,91.70
2023-02-19T20:44:19.376Z,91.70
2023-02-19T20:46:48.392Z,91.60
2023-02-19T20:49:17.118Z,91.70
2023-02-19T20:51:53.567Z,91.60
2023-02-19T20:54:24.300Z,91.60
2023-02-19T20:56:54.781Z,91.60
2023-02-19T20:59:23.703Z,91.70
2023-02-19T21:01:50.726Z,91.70
2023-02-19T21:04:18.934Z,91.70
2023-02-19T21:06:46.041Z,91.70
2023-02-19T21:09:12.874Z,91.70
2023-02-19T21:11:39.654Z,91.70
2023-02-19T21:14:06.378Z,91.70
2023-02-19T21:16:33.488Z,91.70
2023-02-19T21:19:00.288Z,91.70
2023-02-19T21:21:27.611Z,91.80
2023-02-19T21:23:55.564Z,91.80
2023-02-19T21:26:23.062Z,91.90
2023-02-19T21:28:53.697Z,91.90
2023-02-19T21:31:22.028Z,91.90
2023-02-19T21:33:50.059Z,91.90
2023-02-19T21:36:18.663Z,91.90
2023-02-19T21:38:45.393Z,92.00
2023-02-19T21:41:12.152Z,92.00
2023-02-19T21:43:38.834Z,92.00
2023-02-19T21:46:05.628Z,92.10
2023-02-19T21:48:32.376Z,92.10
2023-02-19T21:50:59.031Z,92.10
2023-02-19T21:53:25.716Z,92.20
2023-02-19T21:55:58.433Z,92.30
2023-02-19T21:58:26.161Z,92.40
2023-02-19T22:00:54.007Z,92.50
2023-02-19T22:03:21.134Z,92.50
2023-02-19T22:05:47.879Z,92.50
2023-02-19T22:08:15.920Z,92.50
2023-02-19T22:10:42.716Z,92.60
2023-02-19T22:13:10.223Z,92.60
2023-02-19T22:15:37.293Z,92.50
2023-02-19T22:18:04.242Z,92.60
2023-02-19T22:20:30.946Z,92.60
2023-02-19T22:22:57.662Z,92.60
2023-02-19T22:25:24.400Z,92.70
2023-02-19T22:27:51.102Z,92.70
2023-02-19T22:30:18.077Z,92.70
2023-02-19T22:32:44.909Z,92.70
2023-02-19T22:35:11.724Z,92.70
2023-02-19T22:37:38.454Z,92.70
2023-02-19T22:40:05.689Z,92.70
2023-02-19T22:42:33.955Z,92.70
2023-02-19T22:45:02.467Z,92.70
2023-02-19T22:47:29.262Z,92.70
2023-02-19T22:49:56.061Z,92.70
2023-02-19T22:52:23.985Z,92.80
2023-02-19T22:54:52.487Z,92.80
2023-02-19T22:57:19.177Z,92.80
2023-02-19T22:59:45.899Z,92.80
2023-02-19T23:02:12.713Z,92.80
2023-02-19T23:04:39.407Z,92.80
2023-02-19T23:07:06.823Z,92.90
2023-02-19T23:09:33.603Z,92.90
2023-02-19T23:12:09.413Z,92.90
2023-02-19T23:14:36.105Z,92.90
2023-02-19T23:17:03.106Z,92.90
2023-02-19T23:19:30.082Z,93.00
2023-02-19T23:21:57.201Z,93.00
2023-02-19T23:24:24.223Z,93.00
2023-02-19T23:26:52.990Z,93.10
2023-02-19T23:29:25.072Z,93.10
2023-02-19T23:31:52.356Z,93.10
2023-02-19T23:34:19.454Z,93.20
2023-02-19T23:36:48.994Z,93.20
2023-02-19T23:39:19.276Z,93.30
2023-02-19T23:41:54.120Z,93.30
2023-02-19T23:44:22.583Z,93.40
2023-02-19T23:46:50.284Z,93.40
2023-02-19T23:49:17.583Z,93.50
2023-02-19T23:51:45.032Z,93.50
2023-02-19T23:54:12.390Z,93.50
2023-02-19T23:56:39.312Z,93.60
2023-02-19T23:59:06.425Z,93.60
